Time;durP1;ratioP1;P1;durP2;ratioP2;P2;SDS_P1;SDS_P2;PMS_P1;PMS_P2;Temp;Humidity;BMP_temperature;BMP_pressure;BME280_temperature;BME280_humidity;BME280_pressure;Samples;Min_cycle;Max_cycle;Signal;HPM_P1;HPM_P2
2023/02/08 00:01:36;;;;;;;;;;;;;;;;;;6289832;22;19919;-80
2023/02/08 00:04:02;;;;;;;;;;;;;;;;;;6297408;22;19906;-80
2023/02/08 00:06:28;;;;;;;;;;;;;;;;;;6305603;22;19906;-82
2023/02/08 00:09:00;;;;;;;;;;;;;;;;;;6282254;22;19931;-82
2023/02/08 00:11:32;;;;;;;;;;;;;;;;;;6258422;22;19901;-84
2023/02/08 00:13:59;;;;;;;;;;;;;;;;;;6277051;22;20325;-82
2023/02/08 00:16:32;;;;;;;;;;;;;;;;;;6258370;22;19911;-80
2023/02/08 00:19:10;;;;;;;;;;;;;;;;;;6307486;22;19910;-81
2023/02/08 00:21:37;;;;;;;;;;;;;;;;;;6329891;22;19951;-79
2023/02/08 00:24:03;;;;;;;;;;;;;;;;;;6327063;22;19968;-80
2023/02/08 00:26:30;;;;;;;;;;;;;;;;;;6250977;22;19927;-79
2023/02/08 00:28:56;;;;;;;;;;;;;;;;;;6251503;22;19914;-82
2023/02/08 00:31:22;;;;;;;;;;;;;;;;;;6303933;22;19915;-82
2023/02/08 00:33:48;;;;;;;;;;;;;;;;;;6280647;22;19958;-82
2023/02/08 00:36:17;;;;;;;;;;;;;;;;;;6256701;22;19926;-83
2023/02/08 00:38:50;;;;;;;;;;;;;;;;;;6263445;22;19907;-80
2023/02/08 00:41:22;;;;;;;;;;;;;;;;;;6280438;22;19950;-83
2023/02/08 00:43:52;;;;;;;;;;;;;;;;;;6282335;22;19954;-80
2023/02/08 00:46:22;;;;;;;;;;;;;;;;;;6282424;22;19910;-81
2023/02/08 00:48:49;;;;;;;;;;;;;;;;;;6252635;22;19907;-79
2023/02/08 00:51:17;;;;;;;;;;;;;;;;;;6282193;22;19906;-79
2023/02/08 00:53:48;;;;;;;;;;;;;;;;;;6257445;22;19891;-80
2023/02/08 00:56:14;;;;;;;;;;;;;;;;;;6282213;22;19907;-79
2023/02/08 00:58:40;;;;;;;;;;;;;;;;;;6281763;22;19903;-79
2023/02/08 01:01:06;;;;;;;;;;;;;;;;;;6257023;22;19967;-79
2023/02/08 01:03:32;;;;;;;;;;;;;;;;;;6281900;22;19918;-79
2023/02/08 01:05:57;;;;;;;;;;;;;;;;;;6303048;22;19989;-79
2023/02/08 01:08:23;;;;;;;;;;;;;;;;;;6279549;22;19906;-79
2023/02/08 01:10:49;;;;;;;;;;;;;;;;;;6253717;22;19914;-80
2023/02/08 01:13:15;;;;;;;;;;;;;;;;;;6295273;22;19911;-80
2023/02/08 01:15:40;;;;;;;;;;;;;;;;;;6244535;22;19930;-81
2023/02/08 01:18:07;;;;;;;;;;;;;;;;;;6240311;22;19914;-80
2023/02/08 01:20:33;;;;;;;;;;;;;;;;;;6267578;22;19907;-80
2023/02/08 01:23:02;;;;;;;;;;;;;;;;;;6309425;22;19922;-81
2023/02/08 01:25:43;;;;;;;;;;;;;;;;;;6262622;22;19990;-81
2023/02/08 01:28:22;;;;;;;;;;;;;;;;;;6311768;22;19911;-81
2023/02/08 01:30:51;;;;;;;;;;;;;;;;;;6257621;22;19923;-81
2023/02/08 01:33:21;;;;;;;;;;;;;;;;;;6254379;22;19903;-81
2023/02/08 01:35:57;;;;;;;;;;;;;;;;;;6253291;22;19912;-81
2023/02/08 01:38:27;;;;;;;;;;;;;;;;;;6252985;22;19907;-81
2023/02/08 01:40:53;;;;;;;;;;;;;;;;;;6269857;23;19915;-82
2023/02/08 01:43:22;;;;;;;;;;;;;;;;;;6221881;22;19930;-82
2023/02/08 01:46:01;;;;;;;;;;;;;;;;;;6224225;22;19896;-80
2023/02/08 01:48:29;;;;;;;;;;;;;;;;;;6246562;23;19896;-82
2023/02/08 01:50:58;;;;;;;;;;;;;;;;;;6248280;23;19891;-82
2023/02/08 01:53:27;;;;;;;;;;;;;;;;;;6222272;23;19895;-79
2023/02/08 01:55:57;;;;;;;;;;;;;;;;;;6248693;22;19922;-83
2023/02/08 02:01:07;;;;;;;;;;;;;;;;;;6278346;22;19919;-81
2023/02/08 02:03:47;;;;;;;;;;;;;;;;;;6257242;22;19915;-81
2023/02/08 02:06:15;;;;;;;;;;;;;;;;;;6251753;22;19896;-79
2023/02/08 02:08:44;;;;;;;;;;;;;;;;;;6277468;22;19930;-80
2023/02/08 02:11:12;;;;;;;;;;;;;;;;;;6280218;22;19915;-81
2023/02/08 02:13:39;;;;;;;;;;;;;;;;;;6254724;22;19922;-80
2023/02/08 02:16:07;;;;;;;;;;;;;;;;;;6255134;22;19903;-82
2023/02/08 02:18:47;;;;;;;;;;;;;;;;;;6270049;22;19904;-82
2023/02/08 02:21:25;;;;;;;;;;;;;;;;;;6224639;22;19911;-81
2023/02/08 02:23:52;;;;;;;;;;;;;;;;;;6280053;22;19907;-81
2023/02/08 02:26:18;;;;;;;;;;;;;;;;;;6254329;22;19900;-81
2023/02/08 02:28:45;;;;;;;;;;;;;;;;;;6283779;22;19949;-80
2023/02/08 02:31:17;;;;;;;;;;;;;;;;;;6260598;22;19891;-80
2023/02/08 02:33:47;;;;;;;;;;;;;;;;;;6258800;22;19895;-79
2023/02/08 02:36:15;;;;;;;;;;;;;;;;;;6285181;22;19899;-82
2023/02/08 02:38:41;;;;;;;;;;;;;;;;;;6285436;22;19899;-82
2023/02/08 02:41:08;;;;;;;;;;;;;;;;;;6285281;22;19891;-81
2023/02/08 02:43:40;;;;;;;;;;;;;;;;;;6260356;22;19911;-80
2023/02/08 02:48:41;;;;;;;;;;;;;;;;;;6327809;22;19988;-80
2023/02/08 02:51:07;;;;;;;;;;;;;;;;;;6288378;22;19949;-79
2023/02/08 02:53:36;;;;;;;;;;;;;;;;;;6316698;22;19901;-79
2023/02/08 02:56:04;;;;;;;;;;;;;;;;;;6289427;22;19914;-79
2023/02/08 02:58:37;;;;;;;;;;;;;;;;;;6316900;22;19890;-79
2023/02/08 03:01:06;;;;;;;;;;;;;;;;;;6314761;22;19911;-80
2023/02/08 03:03:33;;;;;;;;;;;;;;;;;;6311097;22;19907;-80
2023/02/08 03:05:58;;;;;;;;;;;;;;;;;;6338043;22;19891;-80
2023/02/08 03:08:27;;;;;;;;;;;;;;;;;;6290337;22;19914;-80
2023/02/08 03:10:53;;;;;;;;;;;;;;;;;;6340444;22;19895;-80
2023/02/08 03:13:21;;;;;;;;;;;;;;;;;;6223407;22;19923;-80
2023/02/08 03:18:35;;;;;;;;;;;;;;;;;;6268163;22;19910;-79
2023/02/08 03:21:13;;;;;;;;;;;;;;;;;;6220507;22;19904;-80
2023/02/08 03:23:43;;;;;;;;;;;;;;;;;;6223103;23;19971;-79
2023/02/08 03:26:09;;;;;;;;;;;;;;;;;;6221486;23;19908;-80
2023/02/08 03:28:35;;;;;;;;;;;;;;;;;;6246915;23;19930;-80
2023/02/08 03:31:01;;;;;;;;;;;;;;;;;;6188748;23;19959;-81
2023/02/08 03:33:30;;;;;;;;;;;;;;;;;;6224929;23;20338;-79
2023/02/08 03:35:58;;;;;;;;;;;;;;;;;;6175579;23;20292;-80
2023/02/08 03:38:24;;;;;;;;;;;;;;;;;;6224623;23;19931;-81
2023/02/08 03:40:50;;;;;;;;;;;;;;;;;;6174671;23;20285;-81
2023/02/08 03:43:16;;;;;;;;;;;;;;;;;;6224700;23;19912;-81
2023/02/08 03:45:42;;;;;;;;;;;;;;;;;;6174668;23;20279;-80
2023/02/08 03:48:08;;;;;;;;;;;;;;;;;;6223680;23;19908;-78
2023/02/08 03:56:06;;;;;;;;;;;;;;;;;;6286070;22;19962;-79
2023/02/08 04:03:58;;;;;;;;;;;;;;;;;;6275274;22;19904;-80
2023/02/08 04:06:37;;;;;;;;;;;;;;;;;;6233511;22;19904;-79
2023/02/08 04:09:14;;;;;;;;;;;;;;;;;;6241408;22;20008;-80
2023/02/08 04:11:44;;;;;;;;;;;;;;;;;;6282569;22;19948;-81
2023/02/08 04:14:22;;;;;;;;;;;;;;;;;;6262776;22;19899;-80
2023/02/08 04:16:51;;;;;;;;;;;;;;;;;;6282834;22;19931;-79
2023/02/08 04:19:24;;;;;;;;;;;;;;;;;;6259480;22;19907;-80
2023/02/08 04:22:03;;;;;;;;;;;;;;;;;;6261123;22;19914;-80
2023/02/08 04:24:37;;;;;;;;;;;;;;;;;;6275353;22;19948;-80
2023/02/08 04:27:06;;;;;;;;;;;;;;;;;;6278598;22;19906;-80
2023/02/08 04:29:33;;;;;;;;;;;;;;;;;;6279934;22;19902;-79
2023/02/08 04:32:01;;;;;;;;;;;;;;;;;;6282673;22;19902;-81
2023/02/08 04:34:55;;;;;;;;;;;;;;;;;;6263646;22;19895;-80
2023/02/08 04:37:42;;;;;;;;;;;;;;;;;;6261382;22;19899;-80
2023/02/08 04:40:13;;;;;;;;;;;;;;;;;;6284236;22;19895;-81
2023/02/08 04:42:57;;;;;;;;;;;;;;;;;;6288706;22;19939;-80
2023/02/08 04:45:30;;;;;;;;;;;;;;;;;;6257745;22;19918;-78
2023/02/08 04:47:56;;;;;;;;;;;;;;;;;;6274965;22;19907;-77
2023/02/08 04:50:22;;;;;;;;;;;;;;;;;;6300685;22;19907;-78
2023/02/08 04:52:57;;;;;;;;;;;;;;;;;;6304025;22;19922;-79
2023/02/08 04:55:28;;;;;;;;;;;;;;;;;;6245631;22;20386;-80
2023/02/08 04:57:54;;;;;;;;;;;;;;;;;;6266866;22;19906;-79
2023/02/08 05:00:20;;;;;;;;;;;;;;;;;;6273972;22;19891;-80
2023/02/08 05:02:57;;;;;;;;;;;;;;;;;;6260887;22;19891;-79
2023/02/08 05:05:42;;;;;;;;;;;;;;;;;;6283414;22;19895;-79
2023/02/08 05:10:58;;;;;;;;;;;;;;;;;;6344061;22;19919;-80
2023/02/08 05:13:28;;;;;;;;;;;;;;;;;;6280227;22;19902;-79
2023/02/08 05:16:10;;;;;;;;;;;;;;;;;;6235294;22;19903;-80
2023/02/08 05:18:59;;;;;;;;;;;;;;;;;;6195018;22;19924;-79
2023/02/08 05:21:25;;;;;;;;;;;;;;;;;;6232981;23;19907;-80
2023/02/08 05:23:51;;;;;;;;;;;;;;;;;;6264993;22;19915;-80
2023/02/08 05:26:16;;;;;;;;;;;;;;;;;;6207131;23;19904;-81
2023/02/08 05:28:46;;;;;;;;;;;;;;;;;;6269275;22;19908;-78
2023/02/08 05:31:19;;;;;;;;;;;;;;;;;;6227346;22;19907;-79
2023/02/08 05:33:55;;;;;;;;;;;;;;;;;;6227108;22;19917;-79
2023/02/08 05:36:25;;;;;;;;;;;;;;;;;;6227029;22;19926;-78
2023/02/08 05:39:07;;;;;;;;;;;;;;;;;;6228357;22;19899;-77
2023/02/08 05:41:40;;;;;;;;;;;;;;;;;;6224964;22;19896;-80
2023/02/08 05:44:37;;;;;;;;;;;;;;;;;;6244754;22;19929;-79
2023/02/08 05:47:11;;;;;;;;;;;;;;;;;;6227510;22;19933;-80
2023/02/08 05:49:48;;;;;;;;;;;;;;;;;;6280933;22;19911;-79
2023/02/08 05:52:26;;;;;;;;;;;;;;;;;;6280371;22;19907;-79
2023/02/08 05:55:05;;;;;;;;;;;;;;;;;;6229891;22;19911;-79
2023/02/08 05:57:45;;;;;;;;;;;;;;;;;;6286184;22;20023;-78
2023/02/08 06:00:16;;;;;;;;;;;;;;;;;;6252498;22;19891;-81
2023/02/08 06:02:42;;;;;;;;;;;;;;;;;;6236267;22;19916;-81
2023/02/08 06:05:07;;;;;;;;;;;;;;;;;;6262441;22;19986;-81
2023/02/08 06:07:33;;;;;;;;;;;;;;;;;;6257986;22;19907;-82
2023/02/08 06:09:58;;;;;;;;;;;;;;;;;;6287038;22;19907;-80
2023/02/08 06:12:23;;;;;;;;;;;;;;;;;;6237964;22;19911;-82
2023/02/08 06:14:49;;;;;;;;;;;;;;;;;;6263230;22;19969;-81
2023/02/08 06:17:14;;;;;;;;;;;;;;;;;;6266484;22;19915;-83
2023/02/08 06:19:39;;;;;;;;;;;;;;;;;;6303238;22;19896;-83
2023/02/08 06:22:07;;;;;;;;;;;;;;;;;;6304090;22;19919;-82
2023/02/08 06:24:36;;;;;;;;;;;;;;;;;;6252077;22;19951;-81
2023/02/08 06:27:01;;;;;;;;;;;;;;;;;;6256413;22;19974;-81
2023/02/08 06:29:27;;;;;;;;;;;;;;;;;;6255935;22;20271;-81
2023/02/08 06:31:52;;;;;;;;;;;;;;;;;;6254642;22;19922;-81
2023/02/08 06:34:18;;;;;;;;;;;;;;;;;;6255423;22;19908;-82
2023/02/08 06:36:44;;;;;;;;;;;;;;;;;;6261207;22;19907;-82
2023/02/08 06:39:09;;;;;;;;;;;;;;;;;;6208900;22;19935;-81
2023/02/08 06:41:35;;;;;;;;;;;;;;;;;;6229296;22;19922;-81
2023/02/08 06:44:01;;;;;;;;;;;;;;;;;;6283597;22;19914;-81
2023/02/08 06:46:26;;;;;;;;;;;;;;;;;;6284345;22;19919;-82
2023/02/08 06:48:52;;;;;;;;;;;;;;;;;;6266051;22;19946;-81
2023/02/08 06:51:26;;;;;;;;;;;;;;;;;;6274688;22;19908;-82
2023/02/08 06:53:52;;;;;;;;;;;;;;;;;;6253133;22;19973;-82
2023/02/08 06:56:18;;;;;;;;;;;;;;;;;;6252183;22;19907;-84
2023/02/08 06:58:43;;;;;;;;;;;;;;;;;;6251900;22;19929;-83
2023/02/08 07:01:09;;;;;;;;;;;;;;;;;;6285141;22;19911;-84
2023/02/08 07:03:35;;;;;;;;;;;;;;;;;;6272615;22;19914;-82
2023/02/08 07:06:00;;;;;;;;;;;;;;;;;;6283526;22;19907;-83
2023/02/08 07:08:26;;;;;;;;;;;;;;;;;;6297202;22;19954;-82
2023/02/08 07:10:51;;;;;;;;;;;;;;;;;;6283704;22;19937;-82
2023/02/08 07:13:17;;;;;;;;;;;;;;;;;;6275653;22;20427;-83
2023/02/08 07:15:42;;;;;;;;;;;;;;;;;;6271362;22;19918;-83
2023/02/08 07:18:08;;;;;;;;;;;;;;;;;;6294249;22;20303;-81
2023/02/08 07:20:33;;;;;;;;;;;;;;;;;;6260117;22;20325;-81
2023/02/08 07:22:59;;;;;;;;;;;;;;;;;;6283680;22;19908;-83
2023/02/08 07:25:24;;;;;;;;;;;;;;;;;;6265524;22;20329;-82
2023/02/08 07:27:52;;;;;;;;;;;;;;;;;;6304932;22;19933;-84
2023/02/08 07:30:19;;;;;;;;;;;;;;;;;;6279559;22;19911;-83
2023/02/08 07:32:45;;;;;;;;;;;;;;;;;;6278183;22;19919;-84
2023/02/08 07:35:11;;;;;;;;;;;;;;;;;;6253651;22;19990;-79
2023/02/08 07:37:36;;;;;;;;;;;;;;;;;;6280836;22;19907;-80
2023/02/08 07:40:02;;;;;;;;;;;;;;;;;;6246465;22;19912;-81
2023/02/08 07:42:27;;;;;;;;;;;;;;;;;;6256039;22;19929;-80
2023/02/08 07:45:13;;;;;;;;;;;;;;;;;;6270376;22;19907;-80
2023/02/08 07:47:38;;;;;;;;;;;;;;;;;;6282184;22;19913;-79
2023/02/08 07:50:04;;;;;;;;;;;;;;;;;;6283634;22;19986;-80
2023/02/08 07:52:29;;;;;;;;;;;;;;;;;;6273219;22;20386;-79
2023/02/08 07:54:54;;;;;;;;;;;;;;;;;;6239499;22;19911;-78
2023/02/08 07:57:20;;;;;;;;;;;;;;;;;;6252359;22;19907;-77
2023/02/08 07:59:46;;;;;;;;;;;;;;;;;;6280375;22;19978;-79
2023/02/08 08:02:11;;;;;;;;;;;;;;;;;;6274536;22;19914;-79
2023/02/08 08:04:37;;;;;;;;;;;;;;;;;;6309320;22;20324;-79
2023/02/08 08:07:02;;;;;;;;;;;;;;;;;;6281258;22;19907;-79
2023/02/08 08:09:27;;;;;;;;;;;;;;;;;;6282613;22;20382;-79
2023/02/08 08:11:53;;;;;;;;;;;;;;;;;;6256347;22;19911;-79
2023/02/08 08:14:18;;;;;;;;;;;;;;;;;;6256106;22;19907;-80
2023/02/08 08:16:43;;;;;;;;;;;;;;;;;;6281957;22;19933;-79
2023/02/08 08:19:09;;;;;;;;;;;;;;;;;;6281653;22;20351;-79
2023/02/08 08:21:35;;;;;;;;;;;;;;;;;;6310784;22;19911;-78
2023/02/08 08:24:00;;;;;;;;;;;;;;;;;;6280636;22;19918;-79
2023/02/08 08:26:25;;;;;;;;;;;;;;;;;;6308188;22;19907;-80
2023/02/08 08:28:51;;;;;;;;;;;;;;;;;;6307082;22;19907;-78
2023/02/08 08:31:16;;;;;;;;;;;;;;;;;;6307427;22;19923;-78
2023/02/08 08:33:42;;;;;;;;;;;;;;;;;;6280073;22;19959;-78
2023/02/08 08:36:07;;;;;;;;;;;;;;;;;;6279652;22;20332;-78
2023/02/08 08:38:33;;;;;;;;;;;;;;;;;;6280833;22;19913;-79
2023/02/08 08:40:58;;;;;;;;;;;;;;;;;;6254323;22;19934;-79
2023/02/08 08:43:23;;;;;;;;;;;;;;;;;;6280811;22;19914;-79
2023/02/08 08:45:49;;;;;;;;;;;;;;;;;;6308759;22;19933;-77
2023/02/08 08:48:14;;;;;;;;;;;;;;;;;;6282706;22;19955;-79
2023/02/08 08:50:41;;;;;;;;;;;;;;;;;;6282832;22;20241;-78
2023/02/08 08:53:07;;;;;;;;;;;;;;;;;;6311083;22;19934;-77
2023/02/08 08:55:32;;;;;;;;;;;;;;;;;;6255784;22;20240;-79
2023/02/08 08:57:57;;;;;;;;;;;;;;;;;;6281871;22;19938;-78
2023/02/08 09:00:23;;;;;;;;;;;;;;;;;;6308793;22;19906;-77
2023/02/08 09:02:48;;;;;;;;;;;;;;;;;;6308357;22;19934;-79
2023/02/08 09:05:14;;;;;;;;;;;;;;;;;;6255900;22;19907;-78
2023/02/08 09:07:39;;;;;;;;;;;;;;;;;;6308624;22;19907;-79
2023/02/08 09:10:04;;;;;;;;;;;;;;;;;;6286373;22;19907;-83
2023/02/08 09:12:30;;;;;;;;;;;;;;;;;;6265976;22;19911;-81
2023/02/08 09:14:55;;;;;;;;;;;;;;;;;;6287777;22;19907;-81
2023/02/08 09:17:20;;;;;;;;;;;;;;;;;;6283938;22;20336;-80
2023/02/08 09:19:46;;;;;;;;;;;;;;;;;;6284103;22;19934;-80
2023/02/08 09:22:11;;;;;;;;;;;;;;;;;;6287803;22;20304;-80
2023/02/08 09:24:37;;;;;;;;;;;;;;;;;;6286609;22;19907;-79
2023/02/08 09:27:03;;;;;;;;;;;;;;;;;;6262346;22;19934;-81
2023/02/08 09:29:29;;;;;;;;;;;;;;;;;;6260571;22;20301;-79
2023/02/08 09:31:54;;;;;;;;;;;;;;;;;;6312334;22;20248;-80
2023/02/08 09:34:19;;;;;;;;;;;;;;;;;;6285978;22;20217;-81
2023/02/08 09:36:45;;;;;;;;;;;;;;;;;;6314010;22;19911;-81
2023/02/08 09:39:10;;;;;;;;;;;;;;;;;;6314526;22;19907;-80
2023/02/08 09:41:35;;;;;;;;;;;;;;;;;;6287879;22;20239;-81
2023/02/08 09:44:01;;;;;;;;;;;;;;;;;;6286464;22;19907;-81
2023/02/08 09:46:26;;;;;;;;;;;;;;;;;;6260745;22;19938;-81
2023/02/08 09:48:52;;;;;;;;;;;;;;;;;;6314978;22;20355;-80
2023/02/08 09:51:18;;;;;;;;;;;;;;;;;;6288186;22;19907;-83
2023/02/08 09:53:43;;;;;;;;;;;;;;;;;;6320612;22;19911;-80
2023/02/08 09:56:09;;;;;;;;;;;;;;;;;;6271980;22;20291;-84
2023/02/08 09:58:34;;;;;;;;;;;;;;;;;;6300305;22;19918;-82
2023/02/08 10:01:00;;;;;;;;;;;;;;;;;;6283328;22;19965;-84
2023/02/08 10:03:28;;;;;;;;;;;;;;;;;;6284106;22;19895;-83
2023/02/08 10:05:53;;;;;;;;;;;;;;;;;;6307542;22;19901;-83
2023/02/08 10:08:19;;;;;;;;;;;;;;;;;;6330515;22;19907;-82
2023/02/08 10:13:41;;;;;;;;;;;;;;;;;;6272437;23;19920;-84
2023/02/08 10:16:06;;;;;;;;;;;;;;;;;;6249789;22;19927;-83
2023/02/08 10:18:34;;;;;;;;;;;;;;;;;;6197779;23;19930;-84
2023/02/08 10:21:15;;;;;;;;;;;;;;;;;;6274393;22;19899;-84
2023/02/08 10:23:43;;;;;;;;;;;;;;;;;;6250211;22;19907;-83
2023/02/08 10:26:11;;;;;;;;;;;;;;;;;;6251195;22;19920;-84
2023/02/08 10:28:40;;;;;;;;;;;;;;;;;;6221547;23;20293;-83
2023/02/08 10:31:05;;;;;;;;;;;;;;;;;;6196272;22;19923;-83
2023/02/08 10:33:34;;;;;;;;;;;;;;;;;;6273846;22;19926;-83
2023/02/08 10:36:03;;;;;;;;;;;;;;;;;;6332955;22;19989;-83
2023/02/08 10:38:28;;;;;;;;;;;;;;;;;;6303078;22;19927;-84
2023/02/08 10:41:22;;;;;;;;;;;;;;;;;;6261854;23;19914;-84
2023/02/08 10:43:58;;;;;;;;;;;;;;;;;;6237970;23;19899;-84
2023/02/08 10:46:28;;;;;;;;;;;;;;;;;;6300086;22;19912;-83
2023/02/08 10:48:54;;;;;;;;;;;;;;;;;;6247093;23;19936;-83
2023/02/08 10:51:21;;;;;;;;;;;;;;;;;;6267408;23;19898;-82
2023/02/08 10:53:48;;;;;;;;;;;;;;;;;;6266628;22;19911;-84
2023/02/08 10:56:14;;;;;;;;;;;;;;;;;;6247083;22;19963;-83
2023/02/08 11:01:14;;;;;;;;;;;;;;;;;;6270660;22;19923;-86
2023/02/08 11:03:40;;;;;;;;;;;;;;;;;;6303725;22;19895;-84
2023/02/08 11:08:48;;;;;;;;;;;;;;;;;;6301223;22;19903;-85
2023/02/08 11:11:20;;;;;;;;;;;;;;;;;;6215835;22;19920;-85
2023/02/08 11:16:27;;;;;;;;;;;;;;;;;;6279138;22;19923;-84
2023/02/08 11:19:41;;;;;;;;;;;;;;;;;;6243959;22;19911;-83
2023/02/08 11:21:44;;;;;;;;;;;;;;;;;;6249472;22;19920;-82
2023/02/08 11:24:27;;;;;;;;;;;;;;;;;;6275760;22;19892;-83
2023/02/08 11:27:05;;;;;;;;;;;;;;;;;;6276102;22;19898;-83
2023/02/08 11:29:47;;;;;;;;;;;;;;;;;;6254564;22;19911;-83
2023/02/08 12:03:00;;;;;;;;;;;;;;;;;;6275422;22;19950;-84
2023/02/08 12:05:32;;;;;;;;;;;;;;;;;;6200847;22;19896;-87
2023/02/08 12:07:59;;;;;;;;;;;;;;;;;;6199478;22;19934;-88
2023/02/08 12:10:34;;;;;;;;;;;;;;;;;;6199538;22;20414;-90
2023/02/08 12:13:15;;;;;;;;;;;;;;;;;;6202662;23;19924;-90
2023/02/08 12:18:18;;;;;;;;;;;;;;;;;;6304393;22;19925;-81
2023/02/08 12:34:11;;;;;;;;;;;;;;;;;;6281606;22;19936;-85
2023/02/08 13:13:06;;;;;;;;;;;;;;;;;;6286308;22;19987;-82
2023/02/08 13:24:55;;;;;;;;;;;;;;;;;;6282789;22;19948;-83
2023/02/08 13:27:23;;;;;;;;;;;;;;;;;;6281274;22;19946;-81
2023/02/08 13:29:49;;;;;;;;;;;;;;;;;;6264121;22;19951;-84
2023/02/08 13:32:21;;;;;;;;;;;;;;;;;;6269157;22;19910;-84
2023/02/08 13:34:48;;;;;;;;;;;;;;;;;;6272362;22;19919;-82
2023/02/08 13:48:04;;;;;;;;;;;;;;;;;;6282495;22;19920;-80
2023/02/08 13:53:18;;;;;;;;;;;;;;;;;;6289156;22;19925;-82
2023/02/08 13:55:45;;;;;;;;;;;;;;;;;;6269089;22;19903;-84
2023/02/08 13:58:27;;;;;;;;;;;;;;;;;;6262171;22;19911;-85
2023/02/08 14:04:06;;;;;;;;;;;;;;;;;;6291601;22;19911;-83
2023/02/08 14:12:06;;;;;;;;;;;;;;;;;;6298596;22;19903;-83
2023/02/08 14:14:36;;;;;;;;;;;;;;;;;;6303808;22;19930;-83
2023/02/08 14:17:02;;;;;;;;;;;;;;;;;;6299625;22;19903;-84
2023/02/08 14:19:33;;;;;;;;;;;;;;;;;;6287424;22;19917;-85
2023/02/08 14:24:47;;;;;;;;;;;;;;;;;;6301505;22;19904;-82
2023/02/08 14:27:12;;;;;;;;;;;;;;;;;;6293957;22;19903;-83
2023/02/08 14:29:44;;;;;;;;;;;;;;;;;;6306079;22;19902;-83
2023/02/08 14:32:13;;;;;;;;;;;;;;;;;;6281461;22;19904;-84
2023/02/08 14:34:40;;;;;;;;;;;;;;;;;;6358550;22;19902;-83
2023/02/08 14:37:19;;;;;;;;;;;;;;;;;;6289898;22;19907;-83
2023/02/08 14:39:51;;;;;;;;;;;;;;;;;;6291198;22;20356;-83
2023/02/08 14:42:39;;;;;;;;;;;;;;;;;;6317757;22;19891;-83
2023/02/08 14:45:36;;;;;;;;;;;;;;;;;;6294488;22;19907;-82
2023/02/08 14:56:55;;;;;;;;;;;;;;;;;;6287265;22;20015;-81
2023/02/08 15:04:55;;;;;;;;;;;;;;;;;;6299243;22;19953;-84
2023/02/08 16:01:30;;;;;;;;;;;;;;;;;;6319517;22;19926;-84
2023/02/08 16:06:31;;;;;;;;;;;;;;;;;;6249840;22;19903;-78
2023/02/08 16:11:49;;;;;;;;;;;;;;;;;;6306876;22;19907;-84
2023/02/08 16:20:16;;;;;;;;;;;;;;;;;;;;;
2023/02/08 16:22:45;;;;;;;;;;;;;;;;;;6368604;22;19932;-85
2023/02/08 16:27:51;;;;;;;;;;;;;;;;;;6315974;22;19922;-84
2023/02/08 16:30:20;;;;;;;;;;;;;;;;;;6297237;22;19896;-84
2023/02/08 16:32:47;;;;;;;;;;;;;;;;;;6239509;22;19903;-85
2023/02/08 16:35:12;;;;;;;;;;;;;;;;;;6242446;22;19926;-84
2023/02/08 16:37:39;;;;;;;;;;;;;;;;;;6291535;22;19925;-85
2023/02/08 16:40:10;;;;;;;;;;;;;;;;;;6266448;22;19923;-83
2023/02/08 16:42:38;;;;;;;;;;;;;;;;;;6265161;22;19975;-84
2023/02/08 16:45:08;;;;;;;;;;;;;;;;;;6265570;22;20009;-82
2023/02/08 16:47:34;;;;;;;;;;;;;;;;;;6248838;22;19930;-84
2023/02/08 16:50:00;;;;;;;;;;;;;;;;;;6239495;22;19910;-84
2023/02/08 16:52:28;;;;;;;;;;;;;;;;;;6246920;22;19945;-84
2023/02/08 17:00:49;;;;;;;;;;;;;;;;;;6240431;22;19911;-85
2023/02/08 17:03:16;;;;;;;;;;;;;;;;;;6279971;22;19923;-85
2023/02/08 17:11:11;;;;;;;;;;;;;;;;;;6284638;22;20689;-81
2023/02/08 17:13:40;;;;;;;;;;;;;;;;;;6225471;22;19910;-85
2023/02/08 17:16:08;;;;;;;;;;;;;;;;;;6248703;23;19907;-84
2023/02/08 17:18:33;;;;;;;;;;;;;;;;;;6275261;22;20683;-80
2023/02/08 17:21:00;;;;;;;;;;;;;;;;;;6274320;22;19916;-84
2023/02/08 17:23:26;;;;;;;;;;;;;;;;;;6271488;22;19926;-84
2023/02/08 17:28:34;;;;;;;;;;;;;;;;;;6296292;22;19942;-80
2023/02/08 17:31:03;;;;;;;;;;;;;;;;;;6274087;22;19903;-84
2023/02/08 17:36:14;;;;;;;;;;;;;;;;;;6267545;22;19923;-85
2023/02/08 17:41:22;;;;;;;;;;;;;;;;;;6305897;22;19939;-83
2023/02/08 17:43:55;;;;;;;;;;;;;;;;;;6256623;22;19911;-84
2023/02/08 17:46:25;;;;;;;;;;;;;;;;;;6256584;22;19904;-84
2023/02/08 17:48:52;;;;;;;;;;;;;;;;;;6255322;22;19895;-85
2023/02/08 17:54:11;;;;;;;;;;;;;;;;;;6327726;22;19919;-85
2023/02/08 17:59:27;;;;;;;;;;;;;;;;;;6311977;22;19910;-81
2023/02/08 18:01:56;;;;;;;;;;;;;;;;;;6252947;22;19919;-83
2023/02/08 18:04:32;;;;;;;;;;;;;;;;;;6242651;22;19974;-82
2023/02/08 18:07:01;;;;;;;;;;;;;;;;;;6296132;22;19902;-83
2023/02/08 18:23:01;;;;;;;;;;;;;;;;;;6300980;22;19919;-82
2023/02/08 18:25:27;;;;;;;;;;;;;;;;;;6277079;22;19904;-81
2023/02/08 18:27:55;;;;;;;;;;;;;;;;;;6302790;22;19888;-82
2023/02/08 18:30:24;;;;;;;;;;;;;;;;;;6301480;22;19907;-83
2023/02/08 18:32:50;;;;;;;;;;;;;;;;;;6301126;22;19918;-82
2023/02/08 18:35:15;;;;;;;;;;;;;;;;;;6299833;22;19908;-82
2023/02/08 18:37:48;;;;;;;;;;;;;;;;;;6302235;22;19903;-83
2023/02/08 18:40:22;;;;;;;;;;;;;;;;;;6296313;22;19926;-83
2023/02/08 18:42:48;;;;;;;;;;;;;;;;;;6301216;22;19919;-83
2023/02/08 18:45:14;;;;;;;;;;;;;;;;;;6301694;22;19911;-82
2023/02/08 18:47:39;;;;;;;;;;;;;;;;;;6273847;22;19929;-82
2023/02/08 18:50:08;;;;;;;;;;;;;;;;;;6293327;22;20444;-83
2023/02/08 18:52:34;;;;;;;;;;;;;;;;;;6256747;22;20399;-81
2023/02/08 18:54:59;;;;;;;;;;;;;;;;;;6281170;22;19903;-81
2023/02/08 18:57:24;;;;;;;;;;;;;;;;;;6280671;22;19962;-81
2023/02/08 18:59:52;;;;;;;;;;;;;;;;;;6281717;22;19910;-81
2023/02/08 19:02:19;;;;;;;;;;;;;;;;;;6280705;22;20320;-81
2023/02/08 19:04:45;;;;;;;;;;;;;;;;;;6282337;22;19935;-82
2023/02/08 19:07:10;;;;;;;;;;;;;;;;;;6280366;22;19914;-81
2023/02/08 19:09:35;;;;;;;;;;;;;;;;;;6278769;22;19907;-81
2023/02/08 19:12:01;;;;;;;;;;;;;;;;;;6279082;22;19908;-81
2023/02/08 19:14:26;;;;;;;;;;;;;;;;;;6278952;22;19909;-81
2023/02/08 19:16:52;;;;;;;;;;;;;;;;;;6278279;22;19907;-81
2023/02/08 19:19:17;;;;;;;;;;;;;;;;;;6280253;22;20249;-81
2023/02/08 19:21:43;;;;;;;;;;;;;;;;;;6253730;22;19911;-81
2023/02/08 19:24:08;;;;;;;;;;;;;;;;;;6279374;22;19911;-81
2023/02/08 19:26:35;;;;;;;;;;;;;;;;;;6279430;22;19911;-81
2023/02/08 19:29:02;;;;;;;;;;;;;;;;;;6254458;22;19907;-82
2023/02/08 19:31:27;;;;;;;;;;;;;;;;;;6279277;22;19907;-81
2023/02/08 19:33:55;;;;;;;;;;;;;;;;;;6279048;22;19961;-81
2023/02/08 19:36:21;;;;;;;;;;;;;;;;;;6279126;22;19961;-81
2023/02/08 19:38:46;;;;;;;;;;;;;;;;;;6277872;22;19911;-80
2023/02/08 19:41:12;;;;;;;;;;;;;;;;;;6280638;22;19908;-81
2023/02/08 19:43:37;;;;;;;;;;;;;;;;;;6280607;22;20329;-81
2023/02/08 19:46:02;;;;;;;;;;;;;;;;;;6280480;22;19929;-82
2023/02/08 19:48:28;;;;;;;;;;;;;;;;;;6282225;22;20428;-81
2023/02/08 19:50:54;;;;;;;;;;;;;;;;;;6278872;22;20054;-82
2023/02/08 19:53:19;;;;;;;;;;;;;;;;;;6280345;22;20329;-81
2023/02/08 19:55:44;;;;;;;;;;;;;;;;;;6278640;22;19934;-81
2023/02/08 19:58:11;;;;;;;;;;;;;;;;;;6280332;22;19907;-82
2023/02/08 20:00:36;;;;;;;;;;;;;;;;;;6280318;22;20337;-81
2023/02/08 20:03:02;;;;;;;;;;;;;;;;;;6280271;22;19914;-81
2023/02/08 20:05:27;;;;;;;;;;;;;;;;;;6281656;22;19947;-81
2023/02/08 20:07:53;;;;;;;;;;;;;;;;;;6281934;22;19907;-81
2023/02/08 20:10:18;;;;;;;;;;;;;;;;;;6278843;22;19947;-81
2023/02/08 20:12:44;;;;;;;;;;;;;;;;;;6279974;22;19915;-81
2023/02/08 20:15:09;;;;;;;;;;;;;;;;;;6279472;22;19929;-80
2023/02/08 20:17:35;;;;;;;;;;;;;;;;;;6282497;22;19914;-81
2023/02/08 20:20:00;;;;;;;;;;;;;;;;;;6280655;22;19907;-78
2023/02/08 20:22:26;;;;;;;;;;;;;;;;;;6279595;22;19951;-81
2023/02/08 20:24:51;;;;;;;;;;;;;;;;;;6279866;22;19913;-81
2023/02/08 20:27:17;;;;;;;;;;;;;;;;;;6279267;22;19915;-80
2023/02/08 20:29:42;;;;;;;;;;;;;;;;;;6254918;22;19927;-81
2023/02/08 20:32:08;;;;;;;;;;;;;;;;;;6282015;22;19935;-82
2023/02/08 20:34:33;;;;;;;;;;;;;;;;;;6285660;22;19930;-82
2023/02/08 20:36:59;;;;;;;;;;;;;;;;;;6284733;22;19907;-81
2023/02/08 20:39:24;;;;;;;;;;;;;;;;;;6281411;22;20364;-82
2023/02/08 20:41:50;;;;;;;;;;;;;;;;;;6282845;22;19908;-82
2023/02/08 20:44:15;;;;;;;;;;;;;;;;;;6281577;22;19914;-81
2023/02/08 20:46:41;;;;;;;;;;;;;;;;;;6282351;22;20340;-82
2023/02/08 20:49:07;;;;;;;;;;;;;;;;;;6254550;22;20333;-81
2023/02/08 20:51:32;;;;;;;;;;;;;;;;;;6280383;22;19926;-84
2023/02/08 20:53:58;;;;;;;;;;;;;;;;;;6280977;22;19918;-82
2023/02/08 20:56:23;;;;;;;;;;;;;;;;;;6280679;22;19966;-82
2023/02/08 20:58:49;;;;;;;;;;;;;;;;;;6285431;22;19985;-81
2023/02/08 21:01:14;;;;;;;;;;;;;;;;;;6257299;22;19907;-81
2023/02/08 21:03:40;;;;;;;;;;;;;;;;;;6281906;22;19907;-82
2023/02/08 21:06:05;;;;;;;;;;;;;;;;;;6282501;22;20217;-80
2023/02/08 21:08:30;;;;;;;;;;;;;;;;;;6281893;22;19908;-81
2023/02/08 21:10:56;;;;;;;;;;;;;;;;;;6286339;22;19914;-81
2023/02/08 21:13:21;;;;;;;;;;;;;;;;;;6283897;22;20290;-80
2023/02/08 21:15:46;;;;;;;;;;;;;;;;;;6283443;22;19973;-82
2023/02/08 21:18:12;;;;;;;;;;;;;;;;;;6287458;22;20291;-80
2023/02/08 21:20:37;;;;;;;;;;;;;;;;;;6286867;22;19908;-81
2023/02/08 21:23:03;;;;;;;;;;;;;;;;;;6316561;22;19911;-82
2023/02/08 21:25:28;;;;;;;;;;;;;;;;;;6264044;22;19982;-82